Time;durP1;ratioP1;P1;durP2;ratioP2;P2;SDS_P1;SDS_P2;PMS_P1;PMS_P2;Temp;Humidity;BMP_temperature;BMP_pressure;BME280_temperature;BME280_humidity;BME280_pressure;Samples;Min_cycle;Max_cycle;Signal;HPM_P1;HPM_P2
2021/12/29 00:00:17;;;;;;;2.30;2.10;;;;;;;5.54;100.00;96452.84;4924386;29;20230;-73
2021/12/29 00:02:45;;;;;;;8.57;3.37;;;;;;;5.57;100.00;96452.50;4921387;29;20683;-69
2021/12/29 00:05:13;;;;;;;10.37;5.60;;;;;;;5.60;100.00;96457.41;4922929;29;20204;-71
2021/12/29 00:07:41;;;;;;;7.40;2.00;;;;;;;5.57;100.00;96460.38;4915420;29;20235;-69
2021/12/29 00:10:11;;;;;;;7.50;3.17;;;;;;;5.54;100.00;96461.53;4896473;29;20234;-70
2021/12/29 00:12:42;;;;;;;3.67;2.33;;;;;;;5.57;100.00;96463.00;4915044;29;20226;-69
2021/12/29 00:15:11;;;;;;;2.43;1.70;;;;;;;5.60;100.00;96474.00;4922592;29;20205;-72
2021/12/29 00:17:42;;;;;;;5.17;2.10;;;;;;;5.58;100.00;96462.03;4926605;28;20222;-70
2021/12/29 00:20:11;;;;;;;3.53;2.40;;;;;;;5.62;100.00;96473.84;4929372;29;20219;-72
2021/12/29 00:22:39;;;;;;;7.97;2.00;;;;;;;5.68;100.00;96460.00;4922495;29;20202;-70
2021/12/29 00:25:09;;;;;;;6.67;4.07;;;;;;;5.66;100.00;96483.00;4897632;29;20902;-73
2021/12/29 00:27:39;;;;;;;6.00;2.10;;;;;;;5.67;100.00;96475.94;4920213;29;20223;-70
2021/12/29 00:30:09;;;;;;;2.67;2.47;;;;;;;5.66;100.00;96477.75;4927397;29;20210;-71
2021/12/29 00:32:37;;;;;;;6.03;1.90;;;;;;;5.76;100.00;96478.38;4929996;29;20211;-70
2021/12/29 00:35:08;;;;;;;3.30;1.87;;;;;;;5.76;100.00;96495.97;4925229;29;20295;-72
2021/12/29 00:37:36;;;;;;;4.27;2.47;;;;;;;5.77;100.00;96481.81;4922248;29;20222;-70
2021/12/29 00:40:05;;;;;;;3.37;1.77;;;;;;;5.81;100.00;96488.38;4904162;29;21483;-71
2021/12/29 00:42:33;;;;;;;8.33;4.40;;;;;;;5.79;100.00;96485.09;4906374;29;20253;-72
2021/12/29 00:45:02;;;;;;;3.27;2.13;;;;;;;5.82;100.00;96507.59;4930949;29;20222;-73
2021/12/29 00:47:32;;;;;;;4.20;1.87;;;;;;;5.83;100.00;96507.44;4918318;29;20466;-73
2021/12/29 00:50:01;;;;;;;6.00;2.00;;;;;;;5.79;100.00;96511.38;4928019;29;20223;-73
2021/12/29 00:52:29;;;;;;;5.00;3.03;;;;;;;5.83;100.00;96511.84;4916842;28;20652;-72
2021/12/29 00:54:57;;;;;;;2.37;1.97;;;;;;;5.83;100.00;96515.31;4932506;29;20219;-72
2021/12/29 00:57:25;;;;;;;3.27;2.20;;;;;;;5.88;100.00;96515.63;4884011;29;20220;-70
2021/12/29 00:59:53;;;;;;;3.00;2.10;;;;;;;5.83;100.00;96507.44;4933343;29;20603;-73
2021/12/29 01:02:22;;;;;;;4.30;1.63;;;;;;;5.86;100.00;96528.13;4920699;29;20203;-71
2021/12/29 01:04:50;;;;;;;3.97;2.70;;;;;;;5.83;100.00;96525.00;4932847;29;20207;-73
2021/12/29 01:07:19;;;;;;;2.50;2.17;;;;;;;5.82;100.00;96532.09;4921559;29;20675;-71
2021/12/29 01:09:47;;;;;;;3.90;1.37;;;;;;;5.88;100.00;96538.47;4928757;28;20318;-74
2021/12/29 01:12:15;;;;;;;3.77;1.83;;;;;;;5.91;100.00;96538.94;4898889;29;20227;-70
2021/12/29 01:14:52;;;;;;;2.60;1.37;;;;;;;5.90;100.00;96547.00;4923700;28;20225;-73
2021/12/29 01:17:22;;;;;;;1.37;1.23;;;;;;;5.90;100.00;96547.00;4922722;29;20210;-71
2021/12/29 01:19:50;;;;;;;6.03;1.47;;;;;;;5.87;100.00;96553.41;4917758;29;20320;-70
2021/12/29 01:22:18;;;;;;;1.73;1.40;;;;;;;5.82;100.00;96554.91;4926979;29;20218;-71
2021/12/29 01:24:46;;;;;;;2.30;1.20;;;;;;;5.90;100.00;96568.06;4924180;29;20210;-71
2021/12/29 01:27:15;;;;;;;2.07;1.80;;;;;;;5.83;100.00;96574.94;4894673;29;20676;-70
2021/12/29 01:29:43;;;;;;;5.90;1.43;;;;;;;5.84;100.00;96577.41;4918733;29;20463;-73
2021/12/29 01:32:11;;;;;;;0.83;0.83;;;;;;;5.83;100.00;96574.94;4929896;29;20231;-70
2021/12/29 01:34:40;;;;;;;6.13;1.63;;;;;;;5.87;100.00;96581.50;4911509;29;20370;-72
2021/12/29 01:37:10;;;;;;;4.30;1.47;;;;;;;5.87;100.00;96592.84;4923082;29;20211;-70
2021/12/29 01:39:38;;;;;;;3.43;1.40;;;;;;;5.87;100.00;96589.41;4914917;29;20257;-73
2021/12/29 01:42:06;;;;;;;3.10;1.50;;;;;;;5.89;100.00;96593.50;4897253;29;20209;-73
2021/12/29 01:44:36;;;;;;;3.67;1.93;;;;;;;5.85;100.00;96594.00;4917117;29;20861;-73
2021/12/29 01:47:05;;;;;;;1.63;1.53;;;;;;;5.85;100.00;96591.38;4926999;29;20212;-73
2021/12/29 01:49:33;;;;;;;4.90;1.93;;;;;;;5.83;100.00;96599.44;4907610;29;20440;-72
2021/12/29 01:52:10;;;;;;;3.33;2.43;;;;;;;5.90;100.00;96600.41;4923940;29;20227;-73
2021/12/29 01:54:40;;;;;;;6.40;2.03;;;;;;;5.92;100.00;96616.03;4912376;29;20316;-73
2021/12/29 01:57:10;;;;;;;3.37;1.67;;;;;;;5.89;100.00;96597.97;4899064;29;20215;-70
2021/12/29 01:59:38;;;;;;;3.07;1.07;;;;;;;5.90;100.00;96610.94;4914012;29;20947;-72
2021/12/29 02:02:07;;;;;;;5.37;2.10;;;;;;;5.90;100.00;96605.66;4929917;29;20600;-70
2021/12/29 02:04:35;;;;;;;2.57;1.57;;;;;;;5.93;100.00;96615.03;4912626;29;20675;-72
2021/12/29 02:07:05;;;;;;;1.70;1.30;;;;;;;5.91;100.00;96612.56;4929633;29;20297;-73
2021/12/29 02:09:33;;;;;;;1.23;1.13;;;;;;;5.91;100.00;96614.38;4909926;29;20812;-72
2021/12/29 02:12:02;;;;;;;3.53;1.90;;;;;;;5.91;100.00;96628.34;4894610;29;20243;-72
2021/12/29 02:14:30;;;;;;;1.30;1.20;;;;;;;5.94;100.00;96624.56;4920465;29;20512;-73
2021/12/29 02:16:58;;;;;;;3.67;1.30;;;;;;;6.00;100.00;96629.16;4921280;29;20235;-73
2021/12/29 02:19:26;;;;;;;4.27;1.40;;;;;;;5.95;100.00;96631.47;4915585;29;20223;-71
2021/12/29 02:22:03;;;;;;;1.40;1.40;;;;;;;6.00;100.00;96651.97;4924318;29;20222;-71
2021/12/29 02:24:41;;;;;;;2.57;1.30;;;;;;;6.00;100.00;96652.81;4925167;29;20509;-73
2021/12/29 02:27:12;;;;;;;2.20;1.80;;;;;;;6.03;100.00;96655.13;4910850;29;20223;-70
2021/12/29 02:29:42;;;;;;;3.53;1.20;;;;;;;6.00;100.00;96660.72;4907816;29;20342;-74
2021/12/29 02:32:11;;;;;;;2.17;1.07;;;;;;;6.03;100.00;96663.03;4918516;29;20250;-70
2021/12/29 02:34:39;;;;;;;1.53;1.20;;;;;;;6.02;100.00;96664.03;4922392;29;20819;-73
2021/12/29 02:37:09;;;;;;;1.30;0.93;;;;;;;6.07;100.00;96666.97;4914338;29;20678;-70
2021/12/29 02:39:38;;;;;;;1.63;1.17;;;;;;;6.00;100.00;96697.53;4922464;29;20238;-72
2021/12/29 02:42:08;;;;;;;1.67;1.17;;;;;;;5.96;100.00;96677.81;4913967;29;20214;-70
2021/12/29 02:44:40;;;;;;;3.37;1.40;;;;;;;5.99;100.00;96692.41;4899423;29;20226;-72
2021/12/29 02:47:09;;;;;;;1.63;1.10;;;;;;;5.99;100.00;96706.41;4915764;29;20241;-70
2021/12/29 02:49:37;;;;;;;4.80;1.87;;;;;;;5.95;100.00;96707.72;4922434;29;20374;-70
2021/12/29 02:52:08;;;;;;;2.23;1.70;;;;;;;5.95;100.00;96710.34;4914353;29;20751;-73
2021/12/29 02:54:38;;;;;;;1.83;1.00;;;;;;;5.99;100.00;96719.56;4921126;29;20741;-73
2021/12/29 02:57:06;;;;;;;2.27;1.50;;;;;;;6.00;100.00;96734.34;4912060;29;20226;-70
2021/12/29 02:59:34;;;;;;;2.53;1.27;;;;;;;5.97;100.00;96725.94;4893123;29;20434;-71
2021/12/29 03:02:03;;;;;;;1.17;1.07;;;;;;;5.98;100.00;96725.81;4906209;29;20234;-73
2021/12/29 03:04:31;;;;;;;2.37;2.10;;;;;;;5.99;100.00;96735.34;4923949;29;20215;-72
2021/12/29 03:06:59;;;;;;;2.20;1.30;;;;;;;6.02;100.00;96737.66;4908991;29;20444;-72
2021/12/29 03:09:28;;;;;;;1.17;1.17;;;;;;;6.08;100.00;96747.50;4926263;29;20719;-73
2021/12/29 03:11:58;;;;;;;1.63;1.53;;;;;;;6.04;100.00;96748.00;4912866;29;20228;-72
2021/12/29 03:14:26;;;;;;;2.03;1.23;;;;;;;6.06;100.00;96743.38;4892807;29;20223;-72
2021/12/29 03:16:54;;;;;;;2.03;1.67;;;;;;;6.10;100.00;96749.16;4909447;29;20219;-71
2021/12/29 03:19:22;;;;;;;1.07;0.97;;;;;;;6.07;100.00;96747.69;4923974;29;20715;-73
2021/12/29 03:21:50;;;;;;;3.83;1.10;;;;;;;6.06;100.00;96751.28;4909238;29;20207;-70
2021/12/29 03:24:20;;;;;;;1.60;1.50;;;;;;;6.11;100.00;96754.25;4924322;29;20208;-73
2021/12/29 03:26:48;;;;;;;1.60;1.00;;;;;;;6.20;100.00;96766.41;4895304;29;20216;-70
2021/12/29 03:29:18;;;;;;;2.97;1.40;;;;;;;6.39;100.00;96782.81;4891408;29;20253;-69
2021/12/29 03:31:46;;;;;;;2.07;1.63;;;;;;;6.42;100.00;96777.22;4916722;29;20217;-70
2021/12/29 03:34:15;;;;;;;3.23;0.97;;;;;;;6.35;100.00;96782.34;4920738;29;20264;-71
2021/12/29 03:36:44;;;;;;;1.20;1.17;;;;;;;6.30;100.00;96778.56;4918656;29;20225;-70
2021/12/29 03:39:12;;;;;;;2.67;1.37;;;;;;;6.28;100.00;96781.38;4914563;29;20239;-70
2021/12/29 03:41:40;;;;;;;2.00;0.90;;;;;;;6.27;100.00;96782.34;4920267;29;20207;-70
2021/12/29 03:44:08;;;;;;;3.83;0.90;;;;;;;6.31;100.00;96780.19;4880738;29;20474;-71
2021/12/29 03:46:39;;;;;;;1.70;1.20;;;;;;;6.46;100.00;96786.44;4923683;29;20215;-70
2021/12/29 03:49:07;;;;;;;2.60;1.40;;;;;;;6.40;100.00;96781.00;4913015;29;20366;-73
2021/12/29 03:51:35;;;;;;;1.40;1.20;;;;;;;6.22;100.00;96784.63;4924751;29;20219;-72
2021/12/29 03:54:04;;;;;;;1.17;1.00;;;;;;;6.20;100.00;96789.25;4914333;29;20252;-73
2021/12/29 03:56:32;;;;;;;1.53;1.43;;;;;;;6.19;100.00;96790.25;4923564;29;20230;-73
2021/12/29 03:59:00;;;;;;;2.40;1.23;;;;;;;6.19;100.00;96811.28;4904269;28;20242;-72
2021/12/29 04:01:28;;;;;;;2.37;1.10;;;;;;;6.17;100.00;96795.69;4893924;29;20214;-74
2021/12/29 04:03:58;;;;;;;3.33;1.50;;;;;;;6.17;100.00;96802.72;4909928;29;20753;-71
2021/12/29 04:06:26;;;;;;;4.43;1.47;;;;;;;6.17;100.00;96813.25;4923437;29;20208;-72
2021/12/29 04:08:54;;;;;;;3.50;1.03;;;;;;;6.17;100.00;96803.56;4916675;29;20626;-73
2021/12/29 04:11:23;;;;;;;1.80;1.00;;;;;;;6.17;100.00;96821.16;4927623;29;20239;-73
2021/12/29 04:13:51;;;;;;;2.17;1.13;;;;;;;6.16;100.00;96817.72;4911789;29;20483;-71
2021/12/29 04:16:19;;;;;;;2.53;1.40;;;;;;;6.13;100.00;96811.94;4888824;29;20231;-73
2021/12/29 04:19:06;;;;;;;3.27;1.27;;;;;;;6.17;100.00;96829.03;4912311;29;20259;-70
2021/12/29 04:21:37;;;;;;;2.63;1.20;;;;;;;6.17;100.00;96827.25;4926197;29;20213;-70
2021/12/29 04:24:05;;;;;;;1.57;1.37;;;;;;;6.13;100.00;96831.19;4914982;29;20450;-73
2021/12/29 04:26:36;;;;;;;1.60;1.13;;;;;;;6.16;100.00;96837.91;4925979;29;20211;-71
2021/12/29 04:29:04;;;;;;;1.17;1.07;;;;;;;6.15;100.00;96841.53;4912604;29;20415;-71
2021/12/29 04:31:32;;;;;;;1.67;0.97;;;;;;;6.13;100.00;96839.09;4891746;29;20234;-73
2021/12/29 04:34:00;;;;;;;3.60;1.40;;;;;;;6.13;100.00;96862.75;4909441;29;20358;-74
2021/12/29 04:36:28;;;;;;;0.93;0.90;;;;;;;6.11;100.00;96863.91;4923485;29;20317;-73
2021/12/29 04:38:58;;;;;;;3.30;1.33;;;;;;;6.08;100.00;96871.13;4910831;29;20779;-73
2021/12/29 04:41:26;;;;;;;1.90;1.07;;;;;;;6.10;100.00;96868.34;4919170;29;20211;-73
2021/12/29 04:43:54;;;;;;;0.97;0.87;;;;;;;6.08;100.00;96868.50;4919649;29;20308;-73
2021/12/29 04:46:28;;;;;;;2.43;1.70;;;;;;;6.04;100.00;96877.72;4909071;29;20218;-68
2021/12/29 04:49:01;;;;;;;2.83;1.20;;;;;;;6.04;100.00;96885.59;4895665;29;20541;-73
2021/12/29 04:51:35;;;;;;;3.47;1.70;;;;;;;6.04;100.00;96882.13;4911962;29;20222;-69
2021/12/29 04:54:06;;;;;;;1.20;1.00;;;;;;;6.07;100.00;96887.91;4914025;29;20667;-71
2021/12/29 04:56:35;;;;;;;1.70;1.10;;;;;;;6.00;100.00;96884.25;4923983;29;20687;-68
2021/12/29 04:59:03;;;;;;;0.83;0.83;;;;;;;6.03;100.00;96901.53;4927945;29;20625;-71
2021/12/29 05:01:32;;;;;;;1.93;1.47;;;;;;;6.07;100.00;96895.78;4878556;29;20214;-70
2021/12/29 05:04:01;;;;;;;3.83;1.43;;;;;;;6.10;100.00;96893.81;4902024;28;20212;-73
2021/12/29 05:09:16;;;;;;;1.07;1.07;;;;;;;6.04;100.00;96888.22;4921037;29;20227;-70
2021/12/29 05:11:46;;;;;;;2.33;1.60;;;;;;;6.03;100.00;96901.53;4921725;29;20242;-71
2021/12/29 05:14:14;;;;;;;3.10;1.57;;;;;;;6.05;100.00;96908.28;4924094;29;20226;-70
2021/12/29 05:16:42;;;;;;;1.33;1.27;;;;;;;6.06;100.00;96917.81;4913297;29;20406;-71
2021/12/29 05:19:10;;;;;;;1.40;1.17;;;;;;;6.10;100.00;96928.00;4881392;29;20237;-69
2021/12/29 05:21:38;;;;;;;1.67;1.10;;;;;;;6.15;100.00;96920.47;4914874;29;20215;-71
2021/12/29 05:24:07;;;;;;;2.20;1.10;;;;;;;6.14;100.00;96937.22;4926759;29;20299;-72
2021/12/29 05:26:36;;;;;;;1.40;1.10;;;;;;;6.22;100.00;96950.38;4917663;29;20567;-71
2021/12/29 05:29:04;;;;;;;1.50;1.40;;;;;;;6.18;100.00;96944.66;4915734;29;20239;-71
2021/12/29 05:31:33;;;;;;;1.60;1.07;;;;;;;6.19;100.00;96946.28;4929865;29;20497;-71
2021/12/29 05:34:01;;;;;;;1.13;1.03;;;;;;;6.25;100.00;96954.50;4883316;29;20227;-70
2021/12/29 05:36:29;;;;;;;1.63;1.20;;;;;;;6.25;100.00;96946.63;4910112;29;20211;-71
2021/12/29 05:38:57;;;;;;;1.63;1.33;;;;;;;6.28;100.00;96954.19;4922770;29;20746;-73
2021/12/29 05:41:25;;;;;;;1.23;1.13;;;;;;;6.23;100.00;96957.28;4913587;29;20215;-69
2021/12/29 05:43:54;;;;;;;1.40;1.10;;;;;;;6.24;100.00;96956.31;4928304;29;20207;-69
2021/12/29 05:46:22;;;;;;;1.43;1.10;;;;;;;6.20;100.00;96952.34;4929754;29;20225;-70
2021/12/29 05:48:51;;;;;;;1.93;1.37;;;;;;;6.27;100.00;96963.91;4898132;29;20325;-72
2021/12/29 05:51:19;;;;;;;1.00;0.90;;;;;;;6.28;100.00;96954.19;4914351;29;20213;-69
2021/12/29 05:53:47;;;;;;;3.53;2.03;;;;;;;6.27;100.00;96963.91;4922094;29;20239;-71
2021/12/29 05:56:15;;;;;;;1.10;0.90;;;;;;;6.30;100.00;96962.75;4900792;29;20214;-70
2021/12/29 05:58:43;;;;;;;1.07;1.07;;;;;;;6.23;100.00;96976.53;4928890;29;20239;-69
2021/12/29 06:01:12;;;;;;;1.13;1.07;;;;;;;6.25;100.00;96986.94;4930934;29;20208;-70
2021/12/29 06:03:40;;;;;;;1.60;1.13;;;;;;;6.21;100.00;96986.41;4913679;29;20274;-71
2021/12/29 06:06:08;;;;;;;2.83;1.10;;;;;;;6.27;100.00;96987.59;4891865;29;20223;-70
2021/12/29 06:08:36;;;;;;;1.73;1.47;;;;;;;6.27;100.00;96986.75;4912255;29;20243;-72
2021/12/29 06:11:04;;;;;;;1.90;1.20;;;;;;;6.27;100.00;97013.06;4917213;29;20215;-70
2021/12/29 06:13:32;;;;;;;1.37;1.27;;;;;;;6.30;100.00;96997.78;4922857;29;20434;-72
2021/12/29 06:16:00;;;;;;;1.10;1.10;;;;;;;6.26;100.00;97017.50;4928221;29;20211;-70
2021/12/29 06:18:30;;;;;;;2.07;1.30;;;;;;;6.32;100.00;97010.75;4913912;29;20342;-73
2021/12/29 06:20:57;;;;;;;1.30;1.03;;;;;;;6.32;100.00;97022.13;4889513;29;20705;-71
2021/12/29 06:23:25;;;;;;;1.27;1.20;;;;;;;6.32;100.00;97019.50;4911856;29;20336;-72
2021/12/29 06:25:53;;;;;;;1.83;1.33;;;;;;;6.35;100.00;97032.34;4917812;29;20218;-73
2021/12/29 06:28:21;;;;;;;3.50;1.23;;;;;;;6.44;100.00;97038.44;4924897;29;20247;-70
2021/12/29 06:30:49;;;;;;;1.40;1.30;;;;;;;6.36;100.00;97044.50;4927598;29;20220;-71
2021/12/29 06:33:17;;;;;;;1.27;0.83;;;;;;;6.35;100.00;97042.84;4925033;29;20242;-70
2021/12/29 06:35:47;;;;;;;1.80;1.50;;;;;;;6.42;100.00;97031.69;4929789;29;20223;-71
2021/12/29 06:38:15;;;;;;;1.37;1.13;;;;;;;6.34;100.00;97033.31;4879846;29;20227;-70
2021/12/29 06:40:43;;;;;;;1.13;1.07;;;;;;;6.33;100.00;97047.47;4918027;29;20685;-72
2021/12/29 06:43:10;;;;;;;4.73;1.93;;;;;;;6.33;100.00;97038.72;4925952;29;20211;-70
2021/12/29 06:45:38;;;;;;;3.27;2.17;;;;;;;6.31;100.00;97041.53;4915194;29;20211;-71
2021/12/29 06:48:07;;;;;;;5.27;2.83;;;;;;;6.27;100.00;97057.78;4926958;29;20203;-70
2021/12/29 06:50:35;;;;;;;5.17;3.90;;;;;;;6.29;100.00;97042.66;4915341;29;20219;-72
2021/12/29 06:53:04;;;;;;;4.27;3.57;;;;;;;6.26;100.00;97050.88;4890160;29;20207;-70
2021/12/29 06:55:32;;;;;;;2.43;1.97;;;;;;;6.22;100.00;97051.19;4911206;29;20770;-72
2021/12/29 06:58:00;;;;;;;2.23;2.13;;;;;;;6.30;100.00;97060.09;4911983;29;20682;-71
2021/12/29 07:00:28;;;;;;;1.90;1.70;;;;;;;6.23;100.00;97058.13;4921824;29;20607;-72
2021/12/29 07:02:57;;;;;;;1.63;1.23;;;;;;;6.34;100.00;97071.94;4926334;29;20228;-72
2021/12/29 07:05:26;;;;;;;1.90;1.53;;;;;;;6.31;100.00;97078.38;4911916;29;21033;-74
2021/12/29 07:07:54;;;;;;;2.67;2.47;;;;;;;6.37;100.00;97080.38;4899297;29;20320;-70
2021/12/29 07:10:24;;;;;;;2.10;1.53;;;;;;;6.39;100.00;97084.63;4900029;29;20254;-70
2021/12/29 07:12:53;;;;;;;1.00;0.90;;;;;;;6.40;100.00;97096.81;4917202;29;20219;-71
2021/12/29 07:15:20;;;;;;;1.53;1.47;;;;;;;6.36;100.00;97097.13;4927898;29;20469;-71
2021/12/29 07:17:48;;;;;;;1.00;1.00;;;;;;;6.39;100.00;97108.31;4922807;29;20223;-70
2021/12/29 07:20:16;;;;;;;6.40;4.00;;;;;;;6.42;100.00;97103.56;4911833;29;20534;-69
2021/12/29 07:22:44;;;;;;;1.10;1.10;;;;;;;6.43;100.00;97110.47;4893341;29;20215;-70
2021/12/29 07:25:13;;;;;;;2.23;1.07;;;;;;;6.47;100.00;97121.50;4913776;29;20207;-68
2021/12/29 07:27:42;;;;;;;1.30;1.30;;;;;;;6.53;100.00;97120.88;4909750;29;20219;-70
2021/12/29 07:30:11;;;;;;;1.50;1.40;;;;;;;6.49;100.00;97141.44;4929687;29;20692;-68
2021/12/29 07:32:39;;;;;;;2.30;2.17;;;;;;;6.55;100.00;97149.69;4928652;29;20219;-71
2021/12/29 07:35:08;;;;;;;1.93;1.83;;;;;;;6.48;100.00;97149.47;4927951;29;20592;-70
2021/12/29 07:37:36;;;;;;;89.23;73.00;;;;;;;6.56;100.00;97138.16;4882111;29;20219;-70
2021/12/29 07:40:07;;;;;;;2.30;2.20;;;;;;;6.52;100.00;97140.28;4920581;29;20243;-69
2021/12/29 07:42:35;;;;;;;3.53;3.33;;;;;;;6.47;100.00;97143.41;4915823;29;20683;-71
2021/12/29 07:45:07;;;;;;;2.67;2.57;;;;;;;6.50;100.00;97137.81;4919547;29;20222;-68
2021/12/29 07:47:35;;;;;;;6.30;5.80;;;;;;;6.41;100.00;97127.41;4926404;29;20860;-70
2021/12/29 07:50:05;;;;;;;1.50;1.50;;;;;;;6.46;100.00;97133.84;4926416;29;20525;-70
2021/12/29 07:52:53;;;;;;;6.40;5.80;;;;;;;6.42;100.00;97132.50;4916070;29;20273;-71
2021/12/29 07:55:21;;;;;;;12.57;7.43;;;;;;;6.36;100.00;97136.63;4888659;29;21451;-70
2021/12/29 07:57:50;;;;;;;14.37;8.33;;;;;;;6.38;100.00;97139.06;4913765;29;20259;-71
2021/12/29 08:00:19;;;;;;;27.17;15.10;;;;;;;6.36;100.00;97141.03;4910300;29;20235;-70
2021/12/29 08:02:47;;;;;;;9.77;6.73;;;;;;;6.35;100.00;97140.22;4923017;29;21632;-71
2021/12/29 08:05:16;;;;;;;3.57;2.47;;;;;;;6.42;100.00;97150.13;4922443;29;20205;-71
2021/12/29 08:07:46;;;;;;;12.57;7.63;;;;;;;6.45;100.00;97157.69;4906532;29;20993;-71
2021/12/29 08:10:14;;;;;;;6.37;4.10;;;;;;;6.41;100.00;97151.09;4893024;29;20227;-70
2021/12/29 08:12:42;;;;;;;20.53;8.53;;;;;;;6.39;100.00;97148.59;4907805;29;20211;-69
2021/12/29 08:15:11;;;;;;;6.07;3.07;;;;;;;6.47;100.00;97153.09;4915377;29;20249;-72
2021/12/29 08:17:41;;;;;;;9.07;5.43;;;;;;;6.43;100.00;97160.47;4920583;29;20218;-70
2021/12/29 08:20:10;;;;;;;4.53;2.90;;;;;;;6.41;100.00;97170.31;4923299;29;20237;-71
2021/12/29 08:22:39;;;;;;;4.07;2.90;;;;;;;6.44;100.00;97166.56;4926312;29;20679;-69
2021/12/29 08:25:08;;;;;;;1.10;1.10;;;;;;;6.53;100.00;97173.50;4897244;29;20211;-70
2021/12/29 08:27:36;;;;;;;2.60;2.13;;;;;;;6.52;100.00;97182.38;4906712;29;20222;-71
2021/12/29 08:30:07;;;;;;;4.33;3.93;;;;;;;6.54;100.00;97188.31;4921355;29;20707;-71
2021/12/29 08:32:35;;;;;;;11.27;10.20;;;;;;;6.59;100.00;97204.47;4910158;29;20214;-69
2021/12/29 08:35:06;;;;;;;6.77;6.07;;;;;;;6.60;100.00;97210.56;4922821;29;20737;-69
2021/12/29 08:37:34;;;;;;;3.87;3.67;;;;;;;6.65;100.00;97226.72;4920907;29;20659;-69
2021/12/29 08:40:07;;;;;;;1.00;1.00;;;;;;;6.65;100.00;97214.38;4927167;29;20239;-69
2021/12/29 08:42:35;;;;;;;3.80;3.43;;;;;;;6.65;100.00;97224.06;4889754;29;20223;-69
2021/12/29 08:45:03;;;;;;;1.70;1.60;;;;;;;6.72;100.00;97226.91;4916342;29;20805;-70
2021/12/29 08:47:32;;;;;;;2.83;2.67;;;;;;;6.71;100.00;97225.28;4908468;29;20621;-69
2021/12/29 08:50:00;;;;;;;2.70;2.50;;;;;;;6.70;100.00;97242.84;4931283;28;20293;-70
2021/12/29 08:52:29;;;;;;;1.57;1.47;;;;;;;6.54;100.00;97232.25;4921273;29;20219;-67
2021/12/29 08:54:57;;;;;;;1.57;1.47;;;;;;;6.40;100.00;97246.81;4928407;29;20225;-68
2021/12/29 08:57:25;;;;;;;1.40;1.30;;;;;;;6.35;100.00;97249.91;4894705;29;20302;-70
2021/12/29 08:59:53;;;;;;;1.00;1.00;;;;;;;6.17;100.00;97258.69;4913870;29;20235;-68
2021/12/29 09:02:21;;;;;;;1.00;1.00;;;;;;;6.10;100.00;97257.66;4908492;29;20214;-71
2021/12/29 09:04:49;;;;;;;1.90;1.80;;;;;;;6.07;100.00;97264.06;4925848;29;20851;-68
2021/12/29 09:07:17;;;;;;;1.30;1.20;;;;;;;6.06;100.00;97262.41;4925931;29;20493;-71
2021/12/29 09:09:46;;;;;;;0.97;0.97;;;;;;;5.99;100.00;97266.59;4928361;29;20229;-70
2021/12/29 09:12:14;;;;;;;2.30;2.07;;;;;;;6.06;100.00;97272.09;4891595;29;20322;-70
2021/12/29 09:14:44;;;;;;;3.60;3.23;;;;;;;6.11;100.00;97279.53;4908578;29;20219;-71
2021/12/29 09:17:12;;;;;;;1.50;1.50;;;;;;;6.03;100.00;97278.50;4914405;29;20903;-71
2021/12/29 09:19:44;;;;;;;2.40;2.30;;;;;;;6.03;100.00;97283.75;4934101;29;20255;-71
2021/12/29 09:22:13;;;;;;;1.83;1.83;;;;;;;5.97;100.00;97286.13;4938236;29;20687;-70
2021/12/29 09:24:42;;;;;;;3.53;3.23;;;;;;;6.04;100.00;97297.72;4935403;29;20239;-71
2021/12/29 09:27:11;;;;;;;3.00;2.70;;;;;;;6.01;100.00;97303.28;4941933;29;20290;-71
2021/12/29 09:29:39;;;;;;;3.40;3.10;;;;;;;5.96;100.00;97308.16;4933640;29;20232;-70
2021/12/29 09:32:08;;;;;;;3.10;2.80;;;;;;;6.00;100.00;97309.50;4936338;29;20215;-71
2021/12/29 09:34:36;;;;;;;4.47;2.80;;;;;;;5.98;100.00;97306.19;4937267;29;20723;-71
2021/12/29 09:37:08;;;;;;;3.43;3.13;;;;;;;5.98;100.00;97322.81;4932521;29;20739;-71
2021/12/29 09:39:36;;;;;;;5.23;3.33;;;;;;;5.98;100.00;97309.66;4935135;29;20553;-72
2021/12/29 09:42:04;;;;;;;2.83;2.63;;;;;;;6.02;100.00;97307.56;4935509;29;20599;-72
2021/12/29 09:44:34;;;;;;;2.80;2.60;;;;;;;5.94;100.00;97308.31;4937936;29;20215;-70
2021/12/29 09:47:03;;;;;;;3.33;3.03;;;;;;;5.94;100.00;97314.38;4933619;29;20204;-71
2021/12/29 09:49:31;;;;;;;2.50;2.30;;;;;;;5.87;100.00;97320.38;4933774;29;20231;-70
2021/12/29 09:51:59;;;;;;;2.70;2.50;;;;;;;5.92;100.00;97323.41;4939174;29;20203;-71
2021/12/29 09:54:27;;;;;;;2.47;2.37;;;;;;;5.96;100.00;97324.75;4933039;29;20204;-71
2021/12/29 09:56:55;;;;;;;2.90;2.70;;;;;;;5.95;100.00;97323.13;4934657;29;20540;-71
2021/12/29 09:59:23;;;;;;;2.80;2.60;;;;;;;5.90;100.00;97330.63;4935865;29;20723;-71
2021/12/29 10:01:53;;;;;;;2.20;2.00;;;;;;;6.06;100.00;97328.16;4936930;29;20220;-71
2021/12/29 10:04:21;;;;;;;2.37;2.00;;;;;;;6.07;100.00;97336.91;4932915;29;20270;-72
2021/12/29 10:06:51;;;;;;;2.13;2.03;;;;;;;6.16;100.00;97337.78;4940226;29;20242;-72
2021/12/29 10:09:20;;;;;;;3.10;2.17;;;;;;;6.27;100.00;97336.72;4935185;29;20235;-71
2021/12/29 10:11:47;;;;;;;2.63;2.43;;;;;;;6.24;100.00;97343.09;4935214;29;20680;-71
2021/12/29 10:14:18;;;;;;;2.50;2.27;;;;;;;5.98;100.00;97337.75;4935713;29;20211;-72
2021/12/29 10:16:48;;;;;;;1.83;1.77;;;;;;;6.01;100.00;97338.31;4939297;29;20680;-70
2021/12/29 10:19:18;;;;;;;2.43;2.23;;;;;;;6.04;100.00;97340.63;4935083;29;20306;-70
2021/12/29 10:21:47;;;;;;;2.30;2.20;;;;;;;6.02;100.00;97350.50;4934281;29;20258;-69
2021/12/29 10:24:18;;;;;;;2.50;2.40;;;;;;;6.01;100.00;97354.09;4937792;29;20235;-69
2021/12/29 10:26:48;;;;;;;2.17;2.07;;;;;;;6.01;100.00;97353.25;4936332;29;20584;-70
2021/12/29 10:29:18;;;;;;;2.40;2.30;;;;;;;6.05;100.00;97344.91;4938553;29;20229;-69
2021/12/29 10:31:48;;;;;;;2.60;2.40;;;;;;;6.13;100.00;97352.06;4932410;29;20372;-68
2021/12/29 10:34:20;;;;;;;2.93;2.60;;;;;;;6.11;100.00;97353.19;4938167;29;20219;-69
2021/12/29 10:36:51;;;;;;;2.57;2.47;;;;;;;6.11;100.00;97353.19;4938268;29;20222;-68
2021/12/29 10:39:23;;;;;;;2.63;2.50;;;;;;;6.17;100.00;97349.94;4937366;29;20732;-68
2021/12/29 10:41:52;;;;;;;3.27;2.50;;;;;;;6.16;100.00;97350.91;4937396;29;20207;-68
2021/12/29 10:44:26;;;;;;;2.33;2.23;;;;;;;6.30;100.00;97354.81;4936195;29;20295;-68
2021/12/29 10:46:56;;;;;;;3.33;3.13;;;;;;;6.21;100.00;97349.50;4933751;29;20371;-68
2021/12/29 10:49:28;;;;;;;2.70;2.53;;;;;;;6.24;100.00;97353.63;4935033;29;20383;-68
2021/12/29 10:51:57;;;;;;;2.60;2.50;;;;;;;6.25;100.00;97357.09;4938515;29;20222;-68
2021/12/29 10:54:29;;;;;;;2.73;2.63;;;;;;;6.19;100.00;97356.72;4937696;29;20215;-68
2021/12/29 10:57:03;;;;;;;4.30;3.27;;;;;;;6.29;100.00;97354.00;4931200;29;20746;-67
2021/12/29 10:59:34;;;;;;;2.70;2.60;;;;;;;6.21;100.00;97353.91;4935581;29;20223;-67
2021/12/29 11:02:03;;;;;;;3.53;3.17;;;;;;;6.13;100.00;97352.06;4932026;29;20207;-68
2021/12/29 11:04:32;;;;;;;4.60;3.30;;;;;;;6.16;100.00;97359.66;4929133;29;20212;-68
2021/12/29 11:07:01;;;;;;;3.07;2.77;;;;;;;6.12;100.00;97352.19;4932045;29;20582;-67
2021/12/29 11:09:32;;;;;;;5.53;2.67;;;;;;;6.18;100.00;97362.13;4929744;29;20238;-69
2021/12/29 11:12:01;;;;;;;3.13;2.60;;;;;;;6.27;100.00;97361.22;4937374;29;20552;-69
2021/12/29 11:14:31;;;;;;;4.23;3.00;;;;;;;6.42;100.00;97358.03;4933103;29;20720;-69
2021/12/29 11:17:10;;;;;;;2.70;2.50;;;;;;;6.42;100.00;97356.22;4933509;29;20215;-68
2021/12/29 11:19:40;;;;;;;2.87;2.67;;;;;;;6.40;100.00;97362.63;4929595;29;20235;-68
2021/12/29 11:22:12;;;;;;;3.73;2.30;;;;;;;6.40;100.00;97362.63;4928970;29;20586;-66
2021/12/29 11:24:41;;;;;;;2.13;1.93;;;;;;;6.47;100.00;97372.41;4934700;29;20223;-68
2021/12/29 11:27:16;;;;;;;2.37;2.17;;;;;;;6.42;100.00;97361.47;4935109;29;20218;-67
2021/12/29 11:29:53;;;;;;;1.67;1.53;;;;;;;6.38;100.00;97354.88;4935027;29;20311;-68
2021/12/29 11:32:24;;;;;;;3.07;2.17;;;;;;;6.42;100.00;97355.41;4938473;29;20207;-68
2021/12/29 11:35:03;;;;;;;2.47;2.30;;;;;;;6.38;100.00;97357.50;4935960;29;20207;-68
2021/12/29 11:37:32;;;;;;;4.17;2.23;;;;;;;6.30;100.00;97352.19;4930259;29;20246;-68
2021/12/29 11:40:00;;;;;;;1.90;1.73;;;;;;;6.29;100.00;97345.28;4932120;29;20238;-68
2021/12/29 11:42:28;;;;;;;2.70;1.90;;;;;;;6.32;100.00;97351.06;4935881;29;20222;-69
2021/12/29 11:44:56;;;;;;;2.07;1.80;;;;;;;6.30;100.00;97358.28;4938553;29;20214;-68